Weather at General Lucio Blanco International Airport

Public forecast

Using degrees Celsius for public forecast. Weather courtesy of forecast.io.

Current aviation weather report (METAR) for General Lucio Blanco International Airport

Report is more than 2 hours old.

Retrieved 2022/05/27 01:43 UTC (5 hours ago):

MMRX 270143Z 09010G20KT 8SM BKN030 26/21 A2992 RMK 8/500

Aviation forecast (TAF) for General Lucio Blanco International Airport

Retrieved 2022/05/27 06:53 UTC (10 minutes ago):

TAF MMRX 270445Z 2706/2806 12005KT P6SM SCT020 TEMPO 2710/2714 3SM BR BKN012 FM271600 13015KT P6SM SKC FM280200 13005KT 5SM HZ SCT015